createdAt,value
2019-03-21T00:00:29.243Z,6.50
2019-03-21T00:03:00.995Z,6.50
2019-03-21T00:05:32.497Z,6.40
2019-03-21T00:08:02.993Z,6.40
2019-03-21T00:10:36.408Z,6.40
2019-03-21T00:13:06.682Z,6.40
2019-03-21T00:15:45.800Z,6.40
2019-03-21T00:18:18.175Z,6.40
2019-03-21T00:20:48.443Z,6.40
2019-03-21T00:23:18.706Z,6.40
2019-03-21T00:25:48.889Z,6.40
2019-03-21T00:28:19.076Z,6.40
2019-03-21T00:30:49.286Z,6.30
2019-03-21T00:33:19.495Z,6.30
2019-03-21T00:35:49.765Z,6.30
2019-03-21T00:38:20.021Z,6.30
2019-03-21T00:40:50.220Z,6.30
2019-03-21T00:43:20.416Z,6.30
2019-03-21T00:45:50.652Z,6.20
2019-03-21T00:48:21.093Z,6.20
2019-03-21T00:50:51.348Z,6.20
2019-03-21T00:53:21.585Z,6.20
2019-03-21T00:55:56.067Z,6.20
2019-03-21T00:58:27.852Z,6.10
2019-03-21T01:01:07.187Z,6.20
2019-03-21T01:03:38.444Z,6.10
2019-03-21T01:06:08.640Z,6.10
2019-03-21T01:08:38.912Z,6.20
2019-03-21T01:11:09.184Z,6.10
2019-03-21T01:13:40.792Z,6.10
2019-03-21T01:16:11.052Z,6.10
2019-03-21T01:18:43.985Z,6.10
2019-03-21T01:21:14.188Z,6.10
2019-03-21T01:23:44.505Z,6.10
2019-03-21T01:26:16.776Z,6.10
2019-03-21T01:28:47.115Z,6.10
2019-03-21T01:31:17.340Z,6.10
2019-03-21T01:33:47.575Z,6.00
2019-03-21T01:36:19.269Z,6.00
2019-03-21T01:38:49.481Z,6.00
2019-03-21T01:41:20.164Z,6.00
2019-03-21T01:43:50.360Z,5.90
2019-03-21T01:46:22.805Z,5.90
2019-03-21T01:48:53.058Z,5.90
2019-03-21T01:51:23.256Z,5.90
2019-03-21T01:53:54.937Z,5.90
2019-03-21T01:56:26.561Z,5.90
2019-03-21T01:58:56.736Z,6.00
2019-03-21T02:01:26.920Z,5.90
2019-03-21T02:03:57.202Z,5.90
2019-03-21T02:06:27.392Z,5.90
2019-03-21T02:08:59.155Z,5.90
2019-03-21T02:11:29.369Z,5.90
2019-03-21T02:13:59.565Z,5.90
2019-03-21T02:16:29.860Z,5.80
2019-03-21T02:19:00.088Z,5.80
2019-03-21T02:21:30.363Z,5.80
2019-03-21T02:24:00.692Z,5.80
2019-03-21T02:26:30.963Z,5.80
2019-03-21T02:29:01.184Z,5.80
2019-03-21T02:31:31.448Z,5.80
2019-03-21T02:34:01.731Z,5.80
2019-03-21T02:36:32.177Z,5.80
2019-03-21T02:39:02.380Z,5.80
2019-03-21T02:41:32.583Z,5.80
2019-03-21T02:44:02.854Z,5.80
2019-03-21T02:46:33.133Z,5.80
2019-03-21T02:49:04.886Z,5.80
2019-03-21T02:51:36.782Z,5.80
2019-03-21T02:54:06.976Z,5.80
2019-03-21T02:56:37.184Z,5.80
2019-03-21T02:59:07.406Z,5.80
2019-03-21T03:01:37.665Z,5.80
2019-03-21T03:04:08.162Z,5.80
2019-03-21T03:06:39.906Z,5.80
2019-03-21T03:09:10.113Z,5.80
2019-03-21T03:11:40.282Z,5.80
2019-03-21T03:14:10.508Z,5.80
2019-03-21T03:16:40.779Z,5.80
2019-03-21T03:19:10.969Z,5.80
2019-03-21T03:21:41.220Z,5.80
2019-03-21T03:24:11.784Z,5.90
2019-03-21T03:26:41.964Z,5.80
2019-03-21T03:29:12.131Z,5.80
2019-03-21T03:31:42.349Z,5.80
2019-03-21T03:34:12.629Z,5.80
2019-03-21T03:36:42.969Z,5.80
2019-03-21T03:39:13.199Z,5.80
2019-03-21T03:41:43.442Z,5.80
2019-03-21T03:44:13.734Z,5.80
2019-03-21T03:46:43.941Z,5.80
2019-03-21T03:49:14.117Z,5.80
2019-03-21T03:51:44.337Z,5.70
2019-03-21T03:54:14.543Z,5.70
2019-03-21T03:56:44.760Z,5.70
2019-03-21T03:59:15.080Z,5.70
2019-03-21T04:01:45.273Z,5.70
2019-03-21T04:04:15.460Z,5.70
2019-03-21T04:06:45.676Z,5.70
2019-03-21T04:09:15.860Z,5.70
2019-03-21T04:11:46.084Z,5.70
2019-03-21T04:14:16.365Z,5.80
2019-03-21T04:16:46.601Z,5.80
2019-03-21T04:19:16.883Z,5.80
2019-03-21T04:21:47.143Z,5.80
2019-03-21T04:24:18.014Z,5.80
2019-03-21T04:26:48.200Z,5.80
2019-03-21T04:29:18.409Z,5.80
2019-03-21T04:31:48.627Z,5.70
2019-03-21T04:34:18.833Z,5.70
2019-03-21T04:36:49.058Z,5.60
2019-03-21T04:39:19.337Z,5.60
2019-03-21T04:41:49.796Z,5.60
2019-03-21T04:44:20.051Z,5.60
2019-03-21T04:46:50.240Z,5.60
2019-03-21T04:49:23.571Z,5.60
2019-03-21T04:51:53.846Z,5.50
2019-03-21T04:54:24.032Z,5.50
2019-03-21T04:56:55.824Z,5.50
2019-03-21T04:59:26.056Z,5.50
2019-03-21T05:01:56.393Z,5.50
2019-03-21T05:04:26.700Z,5.50
2019-03-21T05:06:56.884Z,5.50
2019-03-21T05:09:28.649Z,5.50
2019-03-21T05:11:58.830Z,5.50
2019-03-21T05:14:29.054Z,5.60
2019-03-21T05:16:59.249Z,5.60
2019-03-21T05:19:29.474Z,5.60
2019-03-21T05:21:59.736Z,5.70
2019-03-21T05:24:30.065Z,5.70
2019-03-21T05:27:02.017Z,5.80
2019-03-21T05:29:33.762Z,6.10
2019-03-21T05:32:04.021Z,6.30
2019-03-21T05:34:34.593Z,6.60
2019-03-21T05:37:04.824Z,6.90
2019-03-21T05:39:35.024Z,7.20
2019-03-21T05:42:07.561Z,7.50
2019-03-21T05:44:39.598Z,7.80
2019-03-21T05:47:09.816Z,8.10
2019-03-21T05:49:40.068Z,8.40
2019-03-21T05:52:10.287Z,8.70
2019-03-21T05:54:40.481Z,9.10
2019-03-21T05:57:10.702Z,9.70
2019-03-21T05:59:40.994Z,10.20
2019-03-21T06:02:11.214Z,10.40
2019-03-21T06:04:41.446Z,10.50
2019-03-21T06:07:20.808Z,10.90
2019-03-21T06:09:51.028Z,11.50
2019-03-21T06:12:21.259Z,11.90
2019-03-21T06:15:00.538Z,12.00
2019-03-21T06:17:31.460Z,12.20
2019-03-21T06:20:22.835Z,12.20
2019-03-21T06:23:07.948Z,12.30
2019-03-21T06:25:57.731Z,12.80
2019-03-21T06:28:28.275Z,14.00
2019-03-21T06:30:58.500Z,15.20
2019-03-21T06:33:28.695Z,16.60
2019-03-21T06:35:58.945Z,17.80
2019-03-21T06:38:29.159Z,18.90
2019-03-21T06:40:59.386Z,19.90
2019-03-21T06:43:29.936Z,21.00
2019-03-21T06:46:00.298Z,21.60
2019-03-21T06:48:30.522Z,22.30
2019-03-21T06:51:00.836Z,23.10
2019-03-21T06:53:31.033Z,23.80
2019-03-21T06:56:01.216Z,24.30
2019-03-21T06:58:31.439Z,24.90
2019-03-21T07:01:01.658Z,25.40
2019-03-21T07:03:31.924Z,26.30
2019-03-21T07:06:02.153Z,27.10
2019-03-21T07:08:32.351Z,28.10
2019-03-21T07:11:02.565Z,28.80
2019-03-21T07:13:32.838Z,28.80
2019-03-21T07:16:03.036Z,28.60
2019-03-21T07:18:33.232Z,28.60
2019-03-21T07:21:03.508Z,28.40
2019-03-21T07:23:33.725Z,28.50
2019-03-21T07:26:06.593Z,28.80
2019-03-21T07:28:38.485Z,29.20
2019-03-21T07:31:08.021Z,29.50
2019-03-21T07:33:38.226Z,29.60
2019-03-21T07:36:08.477Z,30.30
2019-03-21T07:38:38.717Z,31.10
2019-03-21T07:41:09.068Z,31.80
2019-03-21T07:43:39.283Z,32.50
2019-03-21T07:46:09.512Z,32.70
2019-03-21T07:48:39.767Z,33.40
2019-03-21T07:51:10.072Z,33.80
2019-03-21T07:53:40.272Z,34.60
2019-03-21T07:56:12.257Z,34.40
2019-03-21T07:58:42.445Z,35.30
2019-03-21T08:01:12.727Z,35.80
2019-03-21T08:03:42.982Z,36.20
2019-03-21T08:06:14.821Z,36.40
2019-03-21T08:08:45.158Z,36.70
2019-03-21T08:11:15.884Z,37.30
2019-03-21T08:13:46.170Z,38.00
2019-03-21T08:16:16.403Z,38.20
2019-03-21T08:18:46.739Z,37.40
2019-03-21T08:21:17.020Z,37.50
2019-03-21T08:23:47.197Z,38.10
2019-03-21T08:26:17.508Z,38.60
2019-03-21T08:28:47.712Z,39.00
2019-03-21T08:31:17.936Z,39.10
2019-03-21T08:33:48.232Z,39.60
2019-03-21T08:36:18.512Z,39.90
2019-03-21T08:38:48.715Z,40.20
2019-03-21T08:41:18.994Z,40.80
2019-03-21T08:43:49.199Z,40.90
2019-03-21T08:46:20.975Z,40.70
2019-03-21T08:48:51.290Z,40.60
2019-03-21T08:51:21.488Z,41.00
2019-03-21T08:53:51.744Z,41.30
2019-03-21T08:56:21.967Z,41.90
2019-03-21T08:58:52.149Z,42.10
2019-03-21T09:01:22.401Z,42.00
2019-03-21T09:03:52.586Z,41.80
2019-03-21T09:06:22.786Z,41.60
2019-03-21T09:08:53.009Z,40.40
2019-03-21T09:11:24.804Z,39.60
2019-03-21T09:13:55.093Z,39.50
2019-03-21T09:16:25.350Z,39.50
2019-03-21T09:18:55.652Z,39.00
2019-03-21T09:21:25.902Z,38.60
2019-03-21T09:23:56.896Z,38.30
2019-03-21T09:26:27.147Z,38.20
2019-03-21T09:28:57.384Z,38.10
2019-03-21T09:31:27.620Z,38.20
2019-03-21T09:33:57.841Z,38.10
2019-03-21T09:36:28.076Z,38.10
2019-03-21T09:38:58.281Z,37.80
2019-03-21T09:41:28.486Z,37.50
2019-03-21T09:43:58.831Z,37.20
2019-03-21T09:46:29.035Z,36.50
2019-03-21T09:48:59.385Z,35.40
2019-03-21T09:51:31.163Z,33.30
2019-03-21T09:54:09.821Z,31.20
2019-03-21T09:56:33.547Z,29.00
2019-03-21T09:59:05.341Z,27.20
2019-03-21T10:01:35.629Z,25.60
2019-03-21T10:04:05.864Z,24.30
2019-03-21T10:06:36.056Z,23.20
2019-03-21T10:09:09.051Z,22.30
2019-03-21T10:11:39.256Z,21.60
2019-03-21T10:14:09.463Z,21.10
2019-03-21T10:16:39.774Z,20.50
2019-03-21T10:19:11.545Z,20.10
2019-03-21T10:21:43.468Z,19.80
2019-03-21T10:24:14.490Z,19.50
2019-03-21T10:26:44.458Z,19.40
2019-03-21T10:29:14.707Z,19.20
2019-03-21T10:31:44.994Z,19.10
2019-03-21T10:34:15.290Z,19.00
2019-03-21T10:36:47.088Z,18.90
2019-03-21T10:39:17.344Z,18.80
2019-03-21T10:41:47.559Z,18.80
2019-03-21T10:44:17.844Z,18.80
2019-03-21T10:46:48.096Z,18.70
2019-03-21T10:49:18.391Z,18.70
2019-03-21T10:51:54.910Z,18.60
2019-03-21T10:54:20.644Z,18.60
2019-03-21T10:56:50.930Z,18.40
2019-03-21T10:59:22.701Z,18.40
2019-03-21T11:01:52.887Z,18.50
2019-03-21T11:04:23.220Z,18.40
2019-03-21T11:07:00.228Z,18.30
2019-03-21T11:09:32.005Z,18.20
2019-03-21T11:12:02.289Z,18.00
2019-03-21T11:14:32.554Z,17.70
2019-03-21T11:17:02.997Z,17.70
2019-03-21T11:19:33.254Z,17.70
2019-03-21T11:22:06.548Z,17.70
2019-03-21T11:24:35.386Z,17.40
2019-03-21T11:27:05.645Z,17.30
2019-03-21T11:29:35.965Z,17.40
2019-03-21T11:32:06.318Z,17.30
2019-03-21T11:34:36.520Z,17.20
2019-03-21T11:37:06.742Z,17.10
2019-03-21T11:39:36.919Z,16.90
2019-03-21T11:42:08.752Z,16.90
2019-03-21T11:44:39.045Z,16.70
2019-03-21T11:47:09.225Z,16.60
2019-03-21T11:49:39.514Z,16.40
2019-03-21T11:52:18.119Z,16.50
2019-03-21T11:54:41.708Z,16.60
2019-03-21T11:57:11.940Z,16.70
2019-03-21T11:59:51.516Z,16.70
2019-03-21T12:02:14.215Z,16.70
2019-03-21T12:04:46.017Z,16.70
2019-03-21T12:07:16.312Z,16.70
2019-03-21T12:09:46.644Z,16.60
2019-03-21T12:12:17.039Z,16.60
2019-03-21T12:14:47.221Z,16.50
2019-03-21T12:17:17.419Z,16.50
2019-03-21T12:19:47.623Z,16.50
2019-03-21T12:22:29.492Z,16.50
2019-03-21T12:24:51.407Z,16.50
2019-03-21T12:27:21.678Z,16.50
2019-03-21T12:29:51.872Z,16.40
2019-03-21T12:32:22.106Z,16.40
2019-03-21T12:34:52.371Z,16.40
2019-03-21T12:37:22.567Z,16.30
2019-03-21T12:39:52.788Z,16.30
2019-03-21T12:42:23.004Z,16.20
2019-03-21T12:44:53.247Z,16.30
2019-03-21T12:47:31.203Z,16.40
2019-03-21T12:49:55.482Z,16.40
2019-03-21T12:52:25.756Z,16.40
2019-03-21T12:54:59.000Z,16.30
2019-03-21T12:57:29.288Z,16.20
2019-03-21T12:59:59.508Z,16.10
2019-03-21T13:02:32.212Z,16.10
2019-03-21T13:05:01.789Z,16.10
2019-03-21T13:07:33.540Z,16.10
2019-03-21T13:10:07.083Z,16.10
2019-03-21T13:12:37.271Z,16.10
2019-03-21T13:15:07.901Z,16.00
2019-03-21T13:17:38.151Z,16.00
2019-03-21T13:20:08.456Z,16.00
2019-03-21T13:22:52.360Z,16.00
2019-03-21T13:25:12.886Z,16.10
2019-03-21T13:27:43.221Z,16.10
2019-03-21T13:30:13.816Z,16.10
2019-03-21T13:32:44.029Z,16.10
2019-03-21T13:35:15.895Z,16.10
2019-03-21T13:37:46.150Z,16.10
2019-03-21T13:40:16.407Z,16.10
2019-03-21T13:42:46.627Z,16.10
2019-03-21T13:45:16.824Z,16.10
2019-03-21T13:47:47.123Z,16.00
2019-03-21T13:50:17.320Z,16.00
2019-03-21T13:52:47.532Z,16.00
2019-03-21T13:55:17.770Z,16.00
2019-03-21T13:57:48.060Z,16.00
2019-03-21T14:00:20.535Z,16.00
2019-03-21T14:02:50.809Z,16.00
2019-03-21T14:05:21.171Z,16.00
2019-03-21T14:07:51.365Z,15.90
2019-03-21T14:10:21.598Z,15.90
2019-03-21T14:12:51.872Z,15.80
2019-03-21T14:15:22.214Z,15.80
2019-03-21T14:17:52.567Z,15.80
2019-03-21T14:20:23.642Z,15.90
2019-03-21T14:22:53.842Z,15.90
2019-03-21T14:25:24.072Z,15.90
2019-03-21T14:27:55.835Z,15.90
2019-03-21T14:30:26.159Z,15.90
2019-03-21T14:32:56.390Z,15.90
2019-03-21T14:35:26.601Z,15.90
2019-03-21T14:37:56.829Z,15.90
2019-03-21T14:40:28.588Z,15.90
2019-03-21T14:42:58.907Z,15.90
2019-03-21T14:45:29.091Z,15.90
2019-03-21T14:47:59.376Z,15.90
2019-03-21T14:50:29.613Z,15.90
2019-03-21T14:52:59.810Z,15.90
2019-03-21T14:55:31.166Z,15.80
2019-03-21T14:58:02.518Z,15.80
2019-03-21T15:00:35.101Z,15.80
2019-03-21T15:03:05.312Z,15.70
2019-03-21T15:05:37.106Z,15.70
2019-03-21T15:08:07.321Z,15.70
2019-03-21T15:10:37.621Z,15.70
2019-03-21T15:13:07.815Z,15.70
2019-03-21T15:15:38.053Z,15.60
2019-03-21T15:18:08.269Z,15.60
2019-03-21T15:20:39.311Z,15.60
2019-03-21T15:23:09.511Z,15.50
2019-03-21T15:25:39.816Z,15.50
2019-03-21T15:28:10.177Z,15.50
2019-03-21T15:30:42.550Z,15.50
2019-03-21T15:33:12.817Z,15.40
2019-03-21T15:35:42.993Z,15.40
2019-03-21T15:38:13.201Z,15.30
2019-03-21T15:40:45.047Z,15.30
2019-03-21T15:43:15.329Z,15.30
2019-03-21T15:45:45.709Z,15.20
2019-03-21T15:48:15.936Z,15.20
2019-03-21T15:50:46.117Z,15.10
2019-03-21T15:53:16.380Z,15.10
2019-03-21T15:55:47.672Z,15.00
2019-03-21T15:58:17.921Z,15.00
2019-03-21T16:00:48.117Z,15.00
2019-03-21T16:03:18.341Z,14.90
2019-03-21T16:05:48.631Z,14.90
2019-03-21T16:08:18.897Z,14.90
2019-03-21T16:10:49.120Z,14.90
2019-03-21T16:13:19.341Z,14.80
2019-03-21T16:15:49.577Z,14.70
2019-03-21T16:18:19.889Z,14.70
2019-03-21T16:20:50.505Z,14.70
2019-03-21T16:23:23.172Z,14.60
2019-03-21T16:25:53.545Z,14.60
2019-03-21T16:28:23.767Z,14.50
2019-03-21T16:30:54.786Z,14.40
2019-03-21T16:33:25.070Z,14.30
2019-03-21T16:35:55.244Z,14.30
2019-03-21T16:38:25.495Z,14.20
2019-03-21T16:40:55.848Z,14.10
2019-03-21T16:43:26.059Z,14.10
2019-03-21T16:45:58.897Z,14.00
2019-03-21T16:48:29.121Z,13.90
2019-03-21T16:50:59.425Z,13.90
2019-03-21T16:53:29.984Z,13.80
2019-03-21T16:56:03.303Z,13.70
2019-03-21T16:58:33.877Z,13.60
2019-03-21T17:01:05.363Z,13.50
2019-03-21T17:03:39.731Z,13.40
2019-03-21T17:06:09.939Z,13.30
2019-03-21T17:08:40.224Z,13.30
2019-03-21T17:11:10.557Z,13.20
2019-03-21T17:13:42.725Z,13.20
2019-03-21T17:16:12.986Z,13.10
2019-03-21T17:18:43.312Z,13.00
2019-03-21T17:21:15.257Z,13.00
2019-03-21T17:23:45.504Z,12.90
2019-03-21T17:26:17.365Z,12.90
2019-03-21T17:28:49.183Z,12.90
2019-03-21T17:31:20.944Z,12.80
2019-03-21T17:33:51.173Z,12.70
2019-03-21T17:36:21.468Z,12.70
2019-03-21T17:38:51.784Z,12.60
2019-03-21T17:41:22.055Z,12.60
2019-03-21T17:43:52.335Z,12.60
2019-03-21T17:46:24.108Z,12.50
2019-03-21T17:48:55.920Z,12.50
2019-03-21T17:51:26.098Z,12.50
2019-03-21T17:53:56.331Z,12.40
2019-03-21T17:56:26.633Z,12.40
2019-03-21T17:58:56.907Z,12.40
2019-03-21T18:01:27.117Z,12.30
2019-03-21T18:03:58.998Z,12.20
2019-03-21T18:06:29.177Z,12.20
2019-03-21T18:08:59.527Z,12.20
2019-03-21T18:11:30.126Z,12.20
2019-03-21T18:14:00.418Z,12.10
2019-03-21T18:16:30.776Z,12.10
2019-03-21T18:19:01.798Z,12.10
2019-03-21T18:21:33.811Z,12.00
2019-03-21T18:24:04.027Z,12.00
2019-03-21T18:26:34.524Z,11.90
2019-03-21T18:29:05.579Z,11.90
2019-03-21T18:31:37.372Z,11.90
2019-03-21T18:34:07.740Z,11.90
2019-03-21T18:36:38.231Z,11.90
2019-03-21T18:39:10.948Z,11.80
2019-03-21T18:41:41.255Z,11.90
2019-03-21T18:44:11.469Z,11.80
2019-03-21T18:46:41.698Z,11.80
2019-03-21T18:49:11.923Z,11.80
2019-03-21T18:51:43.816Z,11.80
2019-03-21T18:54:15.614Z,11.80
2019-03-21T18:56:45.894Z,11.80
2019-03-21T18:59:16.103Z,11.70
2019-03-21T19:01:57.683Z,11.70
2019-03-21T19:04:18.294Z,11.70
2019-03-21T19:06:48.791Z,11.70
2019-03-21T19:09:20.641Z,11.60
2019-03-21T19:11:50.913Z,11.60
2019-03-21T19:14:21.174Z,11.60
2019-03-21T19:16:51.614Z,11.50
2019-03-21T19:19:23.439Z,11.50
2019-03-21T19:21:53.700Z,11.50
2019-03-21T19:24:24.008Z,11.50
2019-03-21T19:26:54.279Z,11.40
2019-03-21T19:29:24.497Z,11.40
2019-03-21T19:31:54.927Z,11.40
2019-03-21T19:34:25.092Z,11.40
2019-03-21T19:36:55.420Z,11.30
2019-03-21T19:39:25.718Z,11.30
2019-03-21T19:41:56.051Z,11.30
2019-03-21T19:44:26.339Z,11.30
2019-03-21T19:46:56.691Z,11.30
2019-03-21T19:49:26.928Z,11.20
2019-03-21T19:51:57.213Z,11.20
2019-03-21T19:54:29.091Z,11.10
2019-03-21T19:56:59.313Z,11.10
2019-03-21T19:59:29.573Z,11.10
2019-03-21T20:01:59.798Z,11.10
2019-03-21T20:04:30.000Z,11.10
2019-03-21T20:07:00.362Z,11.00
2019-03-21T20:09:32.136Z,10.90
2019-03-21T20:12:02.339Z,10.90
2019-03-21T20:14:32.528Z,10.90
2019-03-21T20:17:03.011Z,10.90
2019-03-21T20:19:33.204Z,10.90
2019-03-21T20:22:03.552Z,10.80
2019-03-21T20:24:35.364Z,10.80
2019-03-21T20:27:05.966Z,10.80
2019-03-21T20:29:36.297Z,10.70
2019-03-21T20:32:06.620Z,10.70
2019-03-21T20:34:37.655Z,10.70
2019-03-21T20:37:07.858Z,10.70
2019-03-21T20:39:38.152Z,10.70
2019-03-21T20:42:09.750Z,10.80
2019-03-21T20:44:40.315Z,10.80
2019-03-21T20:47:10.579Z,10.70
2019-03-21T20:49:42.515Z,10.70
2019-03-21T20:52:12.902Z,10.70
2019-03-21T20:54:44.762Z,10.60
2019-03-21T20:57:15.049Z,10.60
2019-03-21T20:59:45.372Z,10.60
2019-03-21T21:02:15.625Z,10.60
2019-03-21T21:04:45.907Z,10.50
2019-03-21T21:07:17.906Z,10.50
2019-03-21T21:09:48.454Z,10.50
2019-03-21T21:12:21.055Z,10.50
2019-03-21T21:14:51.236Z,10.50
2019-03-21T21:17:21.584Z,10.50
2019-03-21T21:19:51.983Z,10.50
2019-03-21T21:22:23.912Z,10.40
2019-03-21T21:24:55.717Z,10.40
2019-03-21T21:27:26.242Z,10.40
2019-03-21T21:29:56.556Z,10.40
2019-03-21T21:32:26.861Z,10.40
2019-03-21T21:34:57.120Z,10.40
2019-03-21T21:37:27.317Z,10.30
2019-03-21T21:39:59.126Z,10.40
2019-03-21T21:42:29.567Z,10.40
2019-03-21T21:44:59.776Z,10.40
2019-03-21T21:47:30.098Z,10.40
2019-03-21T21:50:00.344Z,10.40
2019-03-21T21:52:41.592Z,10.40
2019-03-21T21:55:02.615Z,10.40
2019-03-21T21:57:34.377Z,10.40
2019-03-21T22:00:07.664Z,10.40
2019-03-21T22:02:37.875Z,10.40
2019-03-21T22:05:08.128Z,10.50
2019-03-21T22:07:38.515Z,10.40
2019-03-21T22:10:11.391Z,10.40
2019-03-21T22:12:41.588Z,10.40
2019-03-21T22:15:13.602Z,10.40
2019-03-21T22:17:43.878Z,10.40
2019-03-21T22:20:15.928Z,10.40
2019-03-21T22:22:46.125Z,10.40
2019-03-21T22:25:16.433Z,10.30
2019-03-21T22:27:46.627Z,10.30
2019-03-21T22:30:19.944Z,10.30
2019-03-21T22:32:51.719Z,10.30
2019-03-21T22:35:23.548Z,10.30
2019-03-21T22:37:53.766Z,10.30
2019-03-21T22:40:24.092Z,10.30
2019-03-21T22:42:54.455Z,10.40
2019-03-21T22:45:24.664Z,10.30
2019-03-21T22:47:54.896Z,10.30
2019-03-21T22:50:25.155Z,10.20
2019-03-21T22:52:55.344Z,10.20
2019-03-21T22:55:25.577Z,10.20
2019-03-21T22:57:55.834Z,10.10
2019-03-21T23:00:39.865Z,10.10
2019-03-21T23:03:11.013Z,10.10
2019-03-21T23:05:41.233Z,10.10
2019-03-21T23:08:11.416Z,10.10
2019-03-21T23:10:41.764Z,10.10
2019-03-21T23:13:12.068Z,10.10
2019-03-21T23:15:42.267Z,10.10
2019-03-21T23:18:12.482Z,10.10
2019-03-21T23:20:42.694Z,10.20
2019-03-21T23:23:12.924Z,10.20
2019-03-21T23:25:43.913Z,10.10
2019-03-21T23:28:14.151Z,10.10
2019-03-21T23:30:44.365Z,10.10
2019-03-21T23:33:14.707Z,10.10
2019-03-21T23:35:45.024Z,10.10
2019-03-21T23:38:15.255Z,10.10
2019-03-21T23:40:45.449Z,10.10
2019-03-21T23:43:17.220Z,10.20
2019-03-21T23:45:47.431Z,10.10
2019-03-21T23:48:17.711Z,10.10
2019-03-21T23:50:47.920Z,10.00
2019-03-21T23:53:18.125Z,10.10
2019-03-21T23:55:48.324Z,10.00
2019-03-21T23:58:18.528Z,10.00
